createdAt,value
2018-10-21T00:06:17.720Z,87.90
2018-10-21T00:08:45.955Z,87.70
2018-10-21T00:11:14.502Z,87.80
2018-10-21T00:13:42.715Z,88.50
2018-10-21T00:16:10.832Z,88.60
2018-10-21T00:18:38.947Z,88.60
2018-10-21T00:21:07.222Z,88.50
2018-10-21T00:23:35.418Z,89.20
2018-10-21T00:26:03.588Z,89.10
2018-10-21T00:28:31.748Z,89.00
2018-10-21T00:30:59.885Z,88.90
2018-10-21T00:33:27.999Z,88.80
2018-10-21T00:35:56.184Z,88.90
2018-10-21T00:38:24.312Z,89.00
2018-10-21T00:40:52.432Z,89.50
2018-10-21T00:43:20.545Z,89.60
2018-10-21T00:45:48.804Z,89.40
2018-10-21T00:48:16.924Z,90.10
2018-10-21T00:50:45.044Z,89.40
2018-10-21T00:53:13.194Z,89.60
2018-10-21T00:55:41.543Z,89.30
2018-10-21T00:58:09.652Z,89.40
2018-10-21T01:00:37.768Z,89.20
2018-10-21T01:03:06.039Z,89.40
2018-10-21T01:05:34.139Z,89.30
2018-10-21T01:08:02.263Z,89.40
2018-10-21T01:10:30.416Z,89.30
2018-10-21T01:12:58.567Z,89.60
2018-10-21T01:15:26.708Z,89.70
2018-10-21T01:17:54.862Z,89.70
2018-10-21T01:20:23.000Z,89.70
2018-10-21T01:22:51.105Z,89.80
2018-10-21T01:25:19.206Z,89.90
2018-10-21T01:27:47.303Z,89.70
2018-10-21T01:30:15.416Z,90.00
2018-10-21T01:32:43.563Z,89.90
2018-10-21T01:35:11.693Z,89.80
2018-10-21T01:37:39.835Z,90.00
2018-10-21T01:40:47.073Z,89.80
2018-10-21T01:43:18.460Z,90.10
2018-10-21T01:45:46.759Z,90.30
2018-10-21T01:48:16.144Z,90.30
2018-10-21T01:50:44.298Z,90.10
2018-10-21T01:53:13.216Z,90.00
2018-10-21T01:55:41.332Z,90.00
2018-10-21T01:58:09.440Z,90.00
2018-10-21T02:00:38.155Z,90.00
2018-10-21T02:03:06.340Z,90.00
2018-10-21T02:05:35.038Z,90.10
2018-10-21T02:08:03.151Z,90.00
2018-10-21T02:10:31.262Z,90.00
2018-10-21T02:12:59.387Z,90.10
2018-10-21T02:15:27.513Z,90.20
2018-10-21T02:17:55.625Z,90.10
2018-10-21T02:20:24.184Z,90.20
2018-10-21T02:22:52.535Z,90.20
2018-10-21T02:25:20.665Z,90.20
2018-10-21T02:27:49.629Z,90.30
2018-10-21T02:30:19.840Z,90.20
2018-10-21T02:32:48.733Z,90.10
2018-10-21T02:35:17.409Z,90.10
2018-10-21T02:37:45.805Z,90.10
2018-10-21T02:41:41.588Z,90.30
2018-10-21T02:44:11.233Z,90.20
2018-10-21T02:46:39.785Z,90.80
2018-10-21T02:49:08.718Z,90.80
2018-10-21T02:51:36.842Z,90.70
2018-10-21T02:54:05.529Z,90.80
2018-10-21T02:56:33.644Z,90.50
2018-10-21T02:59:01.771Z,90.60
2018-10-21T03:01:29.877Z,90.50
2018-10-21T03:03:58.357Z,91.10
2018-10-21T03:06:26.463Z,91.90
2018-10-21T03:08:54.584Z,91.60
2018-10-21T03:11:22.768Z,91.50
2018-10-21T03:13:50.876Z,90.80
2018-10-21T03:16:19.015Z,90.60
2018-10-21T03:18:47.115Z,90.70
2018-10-21T03:21:15.237Z,90.50
2018-10-21T03:23:43.328Z,90.60
2018-10-21T03:26:11.437Z,90.50
2018-10-21T03:28:39.537Z,90.40
2018-10-21T03:31:07.653Z,91.10
2018-10-21T03:33:35.828Z,90.80
2018-10-21T03:36:03.868Z,90.60
2018-10-21T03:38:31.984Z,90.60
2018-10-21T03:41:00.117Z,90.50
2018-10-21T03:43:28.304Z,90.40
2018-10-21T03:45:56.470Z,90.40
2018-10-21T03:48:24.500Z,90.50
2018-10-21T03:50:52.595Z,90.50
2018-10-21T03:53:20.688Z,90.50
2018-10-21T03:55:49.087Z,90.50
2018-10-21T03:58:17.191Z,90.70
2018-10-21T04:00:45.288Z,90.70
2018-10-21T04:03:13.444Z,90.80
2018-10-21T04:05:41.563Z,90.90
2018-10-21T04:08:09.746Z,91.40
2018-10-21T04:10:37.849Z,91.00
2018-10-21T04:13:06.006Z,91.00
2018-10-21T04:15:34.132Z,91.10
2018-10-21T04:18:02.248Z,91.10
2018-10-21T04:20:30.371Z,91.20
2018-10-21T04:23:00.765Z,91.00
2018-10-21T04:25:29.875Z,91.00
2018-10-21T04:27:58.886Z,91.00
2018-10-21T04:30:28.177Z,91.10
2018-10-21T04:33:00.064Z,91.20
2018-10-21T04:35:28.756Z,91.20
2018-10-21T04:40:12.157Z,91.10
2018-10-21T04:42:40.167Z,91.00
2018-10-21T04:45:08.894Z,91.10
2018-10-21T04:47:37.137Z,91.20
2018-10-21T04:50:06.354Z,91.30
2018-10-21T04:52:34.491Z,91.20
2018-10-21T04:55:06.214Z,91.30
2018-10-21T04:57:34.983Z,91.30
2018-10-21T05:00:03.179Z,91.30
2018-10-21T05:02:31.975Z,91.20
2018-10-21T05:05:00.343Z,91.30
2018-10-21T05:07:28.504Z,91.20
2018-10-21T05:09:56.673Z,91.30
2018-10-21T05:12:24.784Z,91.40
2018-10-21T05:14:52.897Z,91.40
2018-10-21T05:17:21.025Z,91.40
2018-10-21T05:19:49.399Z,91.30
2018-10-21T05:22:17.607Z,91.30
2018-10-21T05:24:45.639Z,91.20
2018-10-21T05:27:13.782Z,91.30
2018-10-21T05:29:42.007Z,91.40
2018-10-21T05:32:10.130Z,91.30
2018-10-21T05:34:38.296Z,91.30
2018-10-21T05:37:06.740Z,91.30
2018-10-21T05:39:34.868Z,91.30
2018-10-21T05:42:03.005Z,91.20
2018-10-21T05:44:31.129Z,91.30
2018-10-21T05:46:59.247Z,91.40
2018-10-21T05:49:27.412Z,91.50
2018-10-21T05:51:55.546Z,91.50
2018-10-21T05:54:23.748Z,91.40
2018-10-21T05:56:52.117Z,91.40
2018-10-21T05:59:20.266Z,91.40
2018-10-21T06:01:48.636Z,91.30
2018-10-21T06:04:17.662Z,91.40
2018-10-21T06:06:45.786Z,91.40
2018-10-21T06:09:14.866Z,91.50
2018-10-21T06:11:43.306Z,91.60
2018-10-21T06:14:11.587Z,91.50
2018-10-21T06:17:13.335Z,91.40
2018-10-21T06:19:46.024Z,91.60
2018-10-21T06:22:15.082Z,91.70
2018-10-21T06:24:43.855Z,91.80
2018-10-21T06:27:12.059Z,91.70
2018-10-21T06:29:40.303Z,91.70
2018-10-21T06:32:09.449Z,91.70
2018-10-21T06:34:38.811Z,91.80
2018-10-21T06:37:07.010Z,91.80
2018-10-21T06:39:35.207Z,91.70
2018-10-21T06:42:03.448Z,91.60
2018-10-21T06:44:31.611Z,91.70
2018-10-21T06:46:59.784Z,91.70
2018-10-21T06:49:28.041Z,91.70
2018-10-21T06:51:56.322Z,91.90
2018-10-21T06:54:24.519Z,91.90
2018-10-21T06:56:52.829Z,92.00
2018-10-21T06:59:20.787Z,91.90
2018-10-21T07:01:48.943Z,91.90
2018-10-21T07:04:17.193Z,91.90
2018-10-21T07:06:45.335Z,91.90
2018-10-21T07:09:13.442Z,91.90
2018-10-21T07:11:41.581Z,91.80
2018-10-21T07:14:09.805Z,91.80
2018-10-21T07:16:38.077Z,91.70
2018-10-21T07:19:06.246Z,91.70
2018-10-21T07:21:34.430Z,91.50
2018-10-21T07:24:02.721Z,91.20
2018-10-21T07:26:30.896Z,91.80
2018-10-21T07:28:59.011Z,92.10
2018-10-21T07:31:27.276Z,92.10
2018-10-21T07:33:55.496Z,91.80
2018-10-21T07:36:24.613Z,91.20
2018-10-21T07:38:52.800Z,91.20
2018-10-21T07:41:21.135Z,90.80
2018-10-21T07:43:49.349Z,90.60
2018-10-21T07:46:17.761Z,91.00
2018-10-21T07:48:45.763Z,87.20
2018-10-21T07:51:14.058Z,83.90
2018-10-21T07:53:42.574Z,83.00
2018-10-21T07:56:10.704Z,83.60
2018-10-21T07:58:38.883Z,82.20
2018-10-21T08:01:07.020Z,81.90
2018-10-21T08:03:35.250Z,81.40
2018-10-21T08:06:30.452Z,80.70
2018-10-21T08:08:58.674Z,80.90
2018-10-21T08:11:26.768Z,81.70
2018-10-21T08:13:56.046Z,81.40
2018-10-21T08:16:24.160Z,80.90
2018-10-21T08:18:52.872Z,82.00
2018-10-21T08:21:21.109Z,82.70
2018-10-21T08:23:49.444Z,82.10
2018-10-21T08:26:17.671Z,81.10
2018-10-21T08:28:45.822Z,80.50
2018-10-21T08:31:14.157Z,74.60
2018-10-21T08:33:42.290Z,67.30
2018-10-21T08:36:11.111Z,59.00
2018-10-21T08:38:39.260Z,54.40
2018-10-21T08:41:07.409Z,50.00
2018-10-21T08:43:35.976Z,47.90
2018-10-21T08:46:04.274Z,44.60
2018-10-21T08:48:32.358Z,42.20
2018-10-21T08:51:01.312Z,40.00
2018-10-21T08:53:30.201Z,38.00
2018-10-21T08:55:58.736Z,36.60
2018-10-21T08:58:27.064Z,36.00
2018-10-21T09:00:55.215Z,35.20
2018-10-21T09:03:23.344Z,33.30
2018-10-21T09:05:51.522Z,32.80
2018-10-21T09:08:19.706Z,32.50
2018-10-21T09:10:48.266Z,32.30
2018-10-21T09:13:16.401Z,31.80
2018-10-21T09:15:44.750Z,31.20
2018-10-21T09:18:12.902Z,30.90
2018-10-21T09:20:41.017Z,32.20
2018-10-21T09:23:09.161Z,33.80
2018-10-21T09:25:37.289Z,36.60
2018-10-21T09:28:05.721Z,38.70
2018-10-21T09:30:34.397Z,40.90
2018-10-21T09:33:02.542Z,41.50
2018-10-21T09:35:30.677Z,43.00
2018-10-21T09:37:58.823Z,42.40
2018-10-21T09:47:50.688Z,45.50
2018-10-21T09:50:18.828Z,47.30
2018-10-21T09:52:47.041Z,47.20
2018-10-21T09:55:20.033Z,47.20
2018-10-21T09:57:48.712Z,47.10
2018-10-21T10:01:23.238Z,47.60
2018-10-21T10:03:51.798Z,47.40
2018-10-21T10:11:16.567Z,47.50
2018-10-21T10:13:44.738Z,46.10
2018-10-21T10:16:12.904Z,46.90
2018-10-21T10:18:41.182Z,46.60
2018-10-21T10:21:09.325Z,45.30
2018-10-21T10:23:37.438Z,46.80
2018-10-21T10:26:12.318Z,45.90
2018-10-21T10:28:40.437Z,45.40
2018-10-21T10:31:08.882Z,45.80
2018-10-21T10:33:37.004Z,46.30
2018-10-21T10:36:05.789Z,43.90
2018-10-21T10:38:34.575Z,40.80
2018-10-21T10:45:59.334Z,41.10
2018-10-21T10:48:27.478Z,41.10
2018-10-21T11:05:44.802Z,40.70
2018-10-21T11:08:13.220Z,39.80
2018-10-21T11:10:41.359Z,41.00
2018-10-21T11:13:09.548Z,40.50
2018-10-21T11:15:37.656Z,40.80
2018-10-21T11:20:34.430Z,39.70
2018-10-21T11:23:02.529Z,40.40
2018-10-21T11:25:30.684Z,40.10
2018-10-21T11:27:59.281Z,38.80
2018-10-21T11:30:27.609Z,39.30
2018-10-21T11:32:55.947Z,40.40
2018-10-21T11:35:24.038Z,41.00
2018-10-21T11:37:52.137Z,40.00
2018-10-21T11:40:20.450Z,40.50
2018-10-21T11:42:48.634Z,40.70
2018-10-21T11:45:16.736Z,41.60
2018-10-21T11:47:44.852Z,41.70
2018-10-21T11:50:13.224Z,41.50
2018-10-21T11:52:41.390Z,40.40
2018-10-21T11:55:10.058Z,39.40
2018-10-21T11:57:38.509Z,40.90
2018-10-21T12:00:07.734Z,40.60
2018-10-21T12:02:36.457Z,40.80
2018-10-21T12:05:04.748Z,40.90
2018-10-21T12:07:32.916Z,40.60
2018-10-21T12:10:01.233Z,42.30
2018-10-21T12:12:29.369Z,41.40
2018-10-21T12:14:57.506Z,42.00
2018-10-21T12:17:25.653Z,40.50
2018-10-21T12:19:53.894Z,40.90
2018-10-21T12:22:22.052Z,40.80
2018-10-21T12:24:51.637Z,39.90
2018-10-21T12:27:18.228Z,39.30
2018-10-21T12:29:46.353Z,38.70
2018-10-21T12:32:14.480Z,37.90
2018-10-21T12:34:42.660Z,38.90
2018-10-21T12:37:10.849Z,38.00
2018-10-21T12:39:38.924Z,39.10
2018-10-21T12:42:07.044Z,40.20
2018-10-21T12:44:35.173Z,39.10
2018-10-21T12:47:03.556Z,40.00
2018-10-21T12:49:31.636Z,38.90
2018-10-21T12:51:59.787Z,39.80
2018-10-21T12:54:27.958Z,39.50
2018-10-21T12:59:23.941Z,38.30
2018-10-21T13:01:52.072Z,37.60
2018-10-21T13:06:48.473Z,37.90
2018-10-21T13:09:16.609Z,38.60
2018-10-21T13:11:44.796Z,38.20
2018-10-21T13:14:12.980Z,38.60
2018-10-21T13:16:41.108Z,36.00
2018-10-21T13:19:09.527Z,34.70
2018-10-21T13:24:05.656Z,33.20
2018-10-21T13:26:34.743Z,33.20
2018-10-21T13:29:02.916Z,32.70
2018-10-21T13:31:31.347Z,33.40
2018-10-21T13:38:55.575Z,30.60
2018-10-21T13:43:51.560Z,30.10
2018-10-21T13:48:48.110Z,29.90
2018-10-21T13:51:16.234Z,30.00
2018-10-21T13:53:44.352Z,30.50
2018-10-21T13:58:40.448Z,29.30
2018-10-21T14:11:01.050Z,32.40
2018-10-21T14:18:25.012Z,35.40
2018-10-21T14:28:17.072Z,38.30
2018-10-21T14:30:45.445Z,37.10
2018-10-21T14:33:13.591Z,37.50
2018-10-21T14:35:41.670Z,38.00
2018-10-21T14:38:09.795Z,38.10
2018-10-21T14:40:37.919Z,39.20
2018-10-21T14:43:06.032Z,39.70
2018-10-21T14:45:34.892Z,40.20
2018-10-21T14:48:03.219Z,40.50
2018-10-21T14:50:31.324Z,39.70
2018-10-21T14:52:59.443Z,40.20
2018-10-21T14:55:27.553Z,40.50
2018-10-21T15:00:23.721Z,40.30
2018-10-21T15:02:51.762Z,39.40
2018-10-21T15:05:20.130Z,39.80
2018-10-21T15:10:16.203Z,39.90
2018-10-21T15:12:44.284Z,39.70
2018-10-21T15:15:12.397Z,40.60
2018-10-21T15:17:40.528Z,41.10
2018-10-21T15:22:38.175Z,40.60
2018-10-21T15:27:34.860Z,41.50
2018-10-21T15:44:50.634Z,42.30
2018-10-21T15:52:14.978Z,42.90
2018-10-21T16:04:34.923Z,43.80
2018-10-21T16:19:22.708Z,46.00
2018-10-21T16:21:50.831Z,46.60
2018-10-21T16:24:19.156Z,47.00
2018-10-21T16:26:47.253Z,47.30
2018-10-21T16:29:15.361Z,48.40
2018-10-21T16:31:43.573Z,48.00
2018-10-21T16:34:11.690Z,48.60
2018-10-21T16:36:39.817Z,48.80
2018-10-21T16:39:09.146Z,49.60
2018-10-21T16:41:37.248Z,49.10
2018-10-21T16:44:05.442Z,49.90
2018-10-21T16:46:33.547Z,49.90
2018-10-21T16:49:01.675Z,49.90
2018-10-21T16:51:30.231Z,50.20
2018-10-21T16:53:58.378Z,49.80
2018-10-21T16:56:26.496Z,49.80
2018-10-21T17:03:50.566Z,51.10
2018-10-21T17:06:18.640Z,51.50
2018-10-21T17:11:14.728Z,52.40
2018-10-21T17:13:43.068Z,52.40
2018-10-21T17:16:11.577Z,52.90
2018-10-21T17:18:39.626Z,53.40
2018-10-21T17:21:08.115Z,53.70
2018-10-21T17:23:36.211Z,54.40
2018-10-21T17:26:04.567Z,55.10
2018-10-21T17:31:01.060Z,55.10
2018-10-21T17:33:29.172Z,55.60
2018-10-21T17:35:57.497Z,56.40
2018-10-21T17:38:25.838Z,56.30
2018-10-21T17:40:54.449Z,56.60
2018-10-21T17:43:22.588Z,56.80
2018-10-21T17:45:50.705Z,56.80
2018-10-21T17:48:18.854Z,56.80
2018-10-21T17:50:46.973Z,57.10
2018-10-21T17:53:15.080Z,57.30
2018-10-21T17:55:43.308Z,57.50
2018-10-21T17:58:11.481Z,58.10
2018-10-21T18:00:39.517Z,58.40
2018-10-21T18:03:07.615Z,58.50
2018-10-21T18:05:35.706Z,58.60
2018-10-21T18:08:03.893Z,58.90
2018-10-21T18:10:32.004Z,59.20
2018-10-21T18:13:00.095Z,60.20
2018-10-21T18:15:28.221Z,60.80
2018-10-21T18:17:56.391Z,60.40
2018-10-21T18:20:24.523Z,60.90
2018-10-21T18:22:52.627Z,61.70
2018-10-21T18:25:20.823Z,62.50
2018-10-21T18:27:48.913Z,62.30
2018-10-21T18:30:17.025Z,63.00
2018-10-21T18:32:45.799Z,62.80
2018-10-21T18:35:15.235Z,63.60
2018-10-21T18:37:43.612Z,64.10
2018-10-21T18:40:12.208Z,64.60
2018-10-21T18:42:41.862Z,65.00
2018-10-21T18:45:11.543Z,65.60
2018-10-21T18:47:39.741Z,66.30
2018-10-21T18:50:09.298Z,66.80
2018-10-21T18:52:37.433Z,67.80
2018-10-21T18:55:06.298Z,67.60
2018-10-21T18:57:35.367Z,67.60
2018-10-21T19:00:03.736Z,67.80
2018-10-21T19:02:32.240Z,68.30
2018-10-21T19:05:00.405Z,69.10
2018-10-21T19:07:28.636Z,69.10
2018-10-21T19:09:56.797Z,69.20
2018-10-21T19:12:24.892Z,69.70
2018-10-21T19:14:52.993Z,71.40
2018-10-21T19:17:21.148Z,71.60
2018-10-21T19:19:49.530Z,71.00
2018-10-21T19:22:17.710Z,71.10
2018-10-21T19:24:45.775Z,71.70
2018-10-21T19:27:14.372Z,72.10
2018-10-21T19:29:42.549Z,72.50
2018-10-21T19:32:11.015Z,72.90
2018-10-21T19:34:39.143Z,72.60
2018-10-21T19:37:07.416Z,73.20
2018-10-21T19:39:35.664Z,74.80
2018-10-21T19:42:03.902Z,74.50
2018-10-21T19:44:32.165Z,73.80
2018-10-21T19:47:00.320Z,74.60
2018-10-21T19:49:28.594Z,74.80
2018-10-21T19:51:56.808Z,75.40
2018-10-21T19:54:24.937Z,75.80
2018-10-21T19:56:53.411Z,75.70
2018-10-21T19:59:21.679Z,76.10
2018-10-21T20:01:49.901Z,75.80
2018-10-21T20:04:18.139Z,75.90
2018-10-21T20:06:46.293Z,76.50
2018-10-21T20:09:14.529Z,76.30
2018-10-21T20:11:42.686Z,76.50
2018-10-21T20:14:11.179Z,77.10
2018-10-21T20:16:39.368Z,77.00
2018-10-21T20:19:07.764Z,77.30
2018-10-21T20:21:35.888Z,77.50
2018-10-21T20:24:04.047Z,77.70
2018-10-21T20:26:32.194Z,77.70
2018-10-21T20:29:00.391Z,77.80
2018-10-21T20:31:28.545Z,77.80
2018-10-21T20:33:56.999Z,78.20
2018-10-21T20:36:25.229Z,78.40
2018-10-21T20:38:53.599Z,78.30
2018-10-21T20:41:21.828Z,78.40
2018-10-21T20:43:50.163Z,78.30
2018-10-21T20:46:18.501Z,78.60
2018-10-21T20:48:46.654Z,79.10
2018-10-21T20:51:15.110Z,78.90
2018-10-21T20:53:43.188Z,79.20
2018-10-21T20:56:11.357Z,79.50
2018-10-21T20:58:39.490Z,80.00
2018-10-21T21:01:07.919Z,79.90
2018-10-21T21:03:36.057Z,80.40
2018-10-21T21:06:04.297Z,80.30
2018-10-21T21:08:32.786Z,80.50
2018-10-21T21:11:01.321Z,80.40
2018-10-21T21:13:29.448Z,80.30
2018-10-21T21:15:57.614Z,80.70
2018-10-21T21:18:26.008Z,80.90
2018-10-21T21:20:54.161Z,80.90
2018-10-21T21:23:22.332Z,81.60
2018-10-21T21:25:50.416Z,80.80
2018-10-21T21:28:18.603Z,80.90
2018-10-21T21:30:46.841Z,81.20
2018-10-21T21:33:15.022Z,81.40
2018-10-21T21:35:43.135Z,81.60
2018-10-21T21:38:11.795Z,81.80
2018-10-21T21:40:39.915Z,82.60
2018-10-21T21:43:08.033Z,81.90
2018-10-21T21:45:36.131Z,82.20
2018-10-21T21:48:04.396Z,82.20
2018-10-21T21:50:32.452Z,81.90
2018-10-21T21:53:00.784Z,82.40
2018-10-21T21:55:28.917Z,82.40
2018-10-21T21:57:57.116Z,82.50
2018-10-21T22:00:25.256Z,82.20
2018-10-21T22:02:53.371Z,82.20
2018-10-21T22:05:21.475Z,82.20
2018-10-21T22:07:49.672Z,82.50
2018-10-21T22:10:17.859Z,82.10
2018-10-21T22:12:45.914Z,82.60
2018-10-21T22:15:14.123Z,83.40
2018-10-21T22:17:42.521Z,83.20
2018-10-21T22:20:11.432Z,83.70
2018-10-21T22:22:39.631Z,83.70
2018-10-21T22:25:07.863Z,83.90
2018-10-21T22:27:36.008Z,84.10
2018-10-21T22:30:04.523Z,84.10
2018-10-21T22:32:32.620Z,84.10
2018-10-21T22:35:00.836Z,85.00
2018-10-21T22:37:28.964Z,84.40
2018-10-21T22:39:57.122Z,84.20
2018-10-21T22:42:25.194Z,84.30
2018-10-21T22:44:53.323Z,84.90
2018-10-21T22:47:21.451Z,84.50
2018-10-21T22:49:49.889Z,84.60
2018-10-21T22:52:18.088Z,84.40
2018-10-21T22:54:46.131Z,85.10
2018-10-21T23:02:12.672Z,85.20
2018-10-21T23:09:36.662Z,86.90
2018-10-21T23:14:33.084Z,90.30
2018-10-21T23:17:01.217Z,91.10
2018-10-21T23:22:03.888Z,90.90
2018-10-21T23:24:32.203Z,91.30
2018-10-21T23:27:00.344Z,91.80
2018-10-21T23:29:28.444Z,91.50
2018-10-21T23:31:56.581Z,90.50
2018-10-21T23:34:25.593Z,89.90
2018-10-21T23:36:53.754Z,88.80
2018-10-21T23:39:21.913Z,87.90
2018-10-21T23:41:50.043Z,87.50
2018-10-21T23:44:18.272Z,86.60
2018-10-21T23:46:46.486Z,86.20
2018-10-21T23:49:14.720Z,86.10
2018-10-21T23:51:42.855Z,85.50
2018-10-21T23:54:11.288Z,85.00
2018-10-21T23:56:39.542Z,84.90
2018-10-21T23:59:08.640Z,84.30
